Time,TemperatureF,DewpointF,PressureIn,WindDirection,WindDirectionDegrees,WindSpeedMPH,WindSpeedGustMPH,Humidity,HourlyPrecipIn,Conditions,Clouds,dailyrainin,SolarRadiationWatts/m^2,SoftwareType,DateUTC
2013-04-11 00:02:00,35.0,23.0,-100.00,NNW,328,4.0,14.0,60,0.00,,,0.11,0.000000,,2013-04-11 07:02:00,
2013-04-11 00:12:00,35.0,23.0,-100.00,NNW,328,4.0,14.0,60,0.00,,,0.11,0.000000,,2013-04-11 07:12:00,
2013-04-11 00:22:00,35.0,23.0,-100.00,NNW,328,4.0,14.0,60,0.00,,,0.11,0.000000,,2013-04-11 07:22:00,
2013-04-11 00:31:00,35.0,23.0,-100.00,NNW,328,4.0,14.0,60,0.00,,,0.11,0.000000,,2013-04-11 07:31:00,
2013-04-11 00:52:00,33.0,23.0,-100.00,NNW,327,2.0,15.0,66,0.00,,,0.11,0.000000,,2013-04-11 07:52:00,
2013-04-11 01:02:00,33.0,23.0,-100.00,NNW,327,2.0,15.0,66,0.00,,,0.11,0.000000,,2013-04-11 08:02:00,
2013-04-11 01:32:00,33.0,23.0,-100.00,NNW,327,2.0,15.0,66,0.00,,,0.11,0.000000,,2013-04-11 08:32:00,
2013-04-11 01:52:00,33.0,21.0,-100.00,NNW,328,5.0,13.0,62,0.00,,,0.11,0.000000,,2013-04-11 08:52:00,
2013-04-11 02:02:00,33.0,21.0,-100.00,NNW,328,5.0,13.0,62,0.00,,,0.11,0.000000,,2013-04-11 09:02:00,
2013-04-11 02:12:00,33.0,21.0,-100.00,NNW,328,5.0,13.0,62,0.00,,,0.11,0.000000,,2013-04-11 09:12:00,
2013-04-11 02:22:00,33.0,21.0,-100.00,NNW,328,5.0,13.0,62,0.00,,,0.11,0.000000,,2013-04-11 09:22:00,
2013-04-11 02:32:00,33.0,21.0,-100.00,NNW,328,5.0,13.0,62,0.00,,,0.11,0.000000,,2013-04-11 09:32:00,
2013-04-11 02:53:00,33.0,21.0,-100.00,NNW,327,5.0,19.0,60,0.00,,,0.11,0.000000,,2013-04-11 09:53:00,
2013-04-11 03:02:00,33.0,21.0,-100.00,NNW,327,5.0,19.0,60,0.00,,,0.11,0.000000,,2013-04-11 10:02:00,
2013-04-11 03:52:00,33.0,21.0,-100.00,NNW,328,4.0,14.0,60,0.00,,,-99.99,0.000000,,2013-04-11 10:52:00,
2013-04-11 04:02:00,33.0,21.0,-100.00,NNW,328,4.0,14.0,60,0.00,,,-99.99,0.000000,,2013-04-11 11:02:00,
2013-04-11 04:12:00,33.0,21.0,-100.00,NNW,328,4.0,14.0,60,0.00,,,-99.99,0.000000,,2013-04-11 11:12:00,
2013-04-11 04:22:00,33.0,21.0,-100.00,NNW,328,4.0,14.0,60,0.00,,,-99.99,0.000000,,2013-04-11 11:22:00,
2013-04-11 04:32:00,33.0,21.0,-100.00,NNW,328,4.0,14.0,60,0.00,,,-99.99,0.000000,,2013-04-11 11:32:00,
2013-04-11 04:52:00,32.0,22.0,-100.00,NNW,329,5.0,13.0,66,0.00,,,-99.99,0.000000,,2013-04-11 11:52:00,
2013-04-11 05:02:00,32.0,22.0,-100.00,NNW,329,5.0,13.0,66,0.00,,,-99.99,0.000000,,2013-04-11 12:02:00,
2013-04-11 05:12:00,32.0,22.0,-100.00,NNW,329,5.0,13.0,66,0.00,,,-99.99,0.000000,,2013-04-11 12:12:00,
2013-04-11 05:22:00,32.0,22.0,-100.00,NNW,329,5.0,13.0,66,0.00,,,-99.99,0.000000,,2013-04-11 12:22:00,
2013-04-11 05:32:00,32.0,22.0,-100.00,NNW,329,5.0,13.0,66,0.00,,,-99.99,0.000000,,2013-04-11 12:32:00,
2013-04-11 05:52:00,31.0,22.0,-100.00,NNW,329,3.0,9.0,70,0.00,,,-99.99,0.000000,,2013-04-11 12:52:00,
2013-04-11 06:02:00,31.0,22.0,-100.00,NNW,329,3.0,9.0,70,0.00,,,-99.99,0.000000,,2013-04-11 13:02:00,
2013-04-11 06:12:00,31.0,22.0,-100.00,NNW,329,3.0,9.0,70,0.00,,,-99.99,0.000000,,2013-04-11 13:12:00,
2013-04-11 06:22:00,31.0,22.0,-100.00,NNW,329,3.0,9.0,70,0.00,,,-99.99,0.000000,,2013-04-11 13:22:00,
2013-04-11 06:32:00,31.0,22.0,-100.00,NNW,329,3.0,9.0,70,0.00,,,-99.99,0.000000,,2013-04-11 13:32:00,
2013-04-11 06:54:00,31.0,24.0,-100.00,NNW,329,4.0,13.0,74,0.00,,,0.11,1.000000,,2013-04-11 13:54:00,
2013-04-11 07:02:00,31.0,24.0,-100.00,NNW,329,4.0,13.0,74,0.00,,,0.11,1.000000,,2013-04-11 14:02:00,
2013-04-11 07:12:00,31.0,24.0,-100.00,NNW,329,4.0,13.0,74,0.00,,,0.11,1.000000,,2013-04-11 14:12:00,
2013-04-11 07:22:00,31.0,24.0,-100.00,NNW,329,4.0,13.0,74,0.00,,,0.11,1.000000,,2013-04-11 14:22:00,
2013-04-11 07:32:00,31.0,24.0,-100.00,NNW,329,4.0,13.0,74,0.00,,,0.11,1.000000,,2013-04-11 14:32:00,
2013-04-11 07:52:00,31.0,23.0,-100.00,NNW,329,3.0,9.0,73,0.00,,,0.11,14.000000,,2013-04-11 14:52:00,
2013-04-11 08:02:00,31.0,23.0,-100.00,NNW,329,3.0,9.0,73,0.00,,,0.11,14.000000,,2013-04-11 15:02:00,
2013-04-11 08:12:00,31.0,23.0,-100.00,NNW,329,3.0,9.0,73,0.00,,,0.11,14.000000,,2013-04-11 15:12:00,
2013-04-11 08:22:00,31.0,23.0,-100.00,NNW,329,3.0,9.0,73,0.00,,,0.11,14.000000,,2013-04-11 15:22:00,
2013-04-11 08:32:00,31.0,23.0,-100.00,NNW,329,3.0,9.0,73,0.00,,,0.11,14.000000,,2013-04-11 15:32:00,
2013-04-11 09:53:00,35.0,24.0,-100.00,NNW,329,3.0,13.0,65,-99.99,,,0.10,116.000000,,2013-04-11 16:53:00,
2013-04-11 10:02:00,35.0,24.0,-100.00,NNW,329,3.0,13.0,65,-99.99,,,0.10,116.000000,,2013-04-11 17:02:00,
2013-04-11 10:12:00,35.0,24.0,-100.00,NNW,329,3.0,13.0,65,-99.99,,,0.10,116.000000,,2013-04-11 17:12:00,
2013-04-11 10:22:00,35.0,24.0,-100.00,NNW,329,3.0,13.0,65,-99.99,,,0.10,116.000000,,2013-04-11 17:22:00,
2013-04-11 10:32:00,35.0,24.0,-100.00,NNW,329,3.0,13.0,65,-99.99,,,0.10,116.000000,,2013-04-11 17:32:00,
2013-04-11 10:53:00,36.0,24.0,-100.00,NNW,328,4.0,9.0,62,0.00,,,0.08,226.000000,,2013-04-11 17:53:00,
2013-04-11 11:02:00,36.0,24.0,-100.00,NNW,328,4.0,9.0,62,0.00,,,0.08,226.000000,,2013-04-11 18:02:00,
2013-04-11 11:13:00,36.0,24.0,-100.00,NNW,328,4.0,9.0,62,0.00,,,0.08,226.000000,,2013-04-11 18:13:00,
2013-04-11 11:22:00,36.0,24.0,-100.00,NNW,328,4.0,9.0,62,0.00,,,0.08,226.000000,,2013-04-11 18:22:00,
2013-04-11 11:32:00,36.0,24.0,-100.00,NNW,328,4.0,9.0,62,0.00,,,0.08,226.000000,,2013-04-11 18:32:00,
2013-04-11 11:53:00,38.0,25.0,-100.00,NNW,327,4.0,10.0,59,0.00,,,0.00,415.000000,,2013-04-11 18:53:00,
2013-04-11 12:03:00,38.0,25.0,-100.00,NNW,327,4.0,10.0,59,0.00,,,0.00,415.000000,,2013-04-11 19:03:00,
2013-04-11 12:13:00,38.0,25.0,-100.00,NNW,327,4.0,10.0,59,0.00,,,0.00,415.000000,,2013-04-11 19:13:00,
2013-04-11 12:22:00,38.0,25.0,-100.00,NNW,327,4.0,10.0,59,0.00,,,0.00,415.000000,,2013-04-11 19:22:00,
2013-04-11 12:32:00,38.0,25.0,-100.00,NNW,327,4.0,10.0,59,0.00,,,0.00,415.000000,,2013-04-11 19:32:00,
2013-04-11 12:53:00,42.0,25.0,-100.00,NNW,328,4.0,11.0,50,0.00,,,0.00,622.000000,,2013-04-11 19:53:00,
2013-04-11 13:02:00,42.0,25.0,-100.00,NNW,328,4.0,11.0,50,0.00,,,0.00,622.000000,,2013-04-11 20:02:00,
2013-04-11 13:13:00,42.0,25.0,-100.00,NNW,328,4.0,11.0,50,0.00,,,0.00,622.000000,,2013-04-11 20:13:00,
2013-04-11 13:21:00,42.0,25.0,-100.00,NNW,328,4.0,11.0,50,0.00,,,0.00,622.000000,,2013-04-11 20:21:00,
2013-04-11 13:32:00,42.0,25.0,-100.00,NNW,328,4.0,11.0,50,0.00,,,0.00,622.000000,,2013-04-11 20:32:00,
2013-04-11 13:52:00,38.0,27.0,-100.00,NNW,328,4.0,12.0,64,0.00,,,0.00,246.000000,,2013-04-11 20:52:00,
2013-04-11 14:02:00,38.0,27.0,-100.00,NNW,328,4.0,12.0,64,0.00,,,0.00,246.000000,,2013-04-11 21:02:00,
2013-04-11 14:54:00,39.0,26.0,-100.00,NNW,327,4.0,12.0,60,-99.99,,,0.00,299.000000,,2013-04-11 21:54:00,
2013-04-11 15:03:00,39.0,26.0,-100.00,NNW,327,4.0,12.0,60,-99.99,,,0.00,299.000000,,2013-04-11 22:03:00,
2013-04-11 15:53:00,42.0,24.0,-100.00,NNW,327,4.0,12.0,48,-99.99,,,0.00,482.000000,,2013-04-11 22:53:00,
2013-04-11 16:03:00,42.0,24.0,-100.00,NNW,327,4.0,12.0,48,-99.99,,,0.00,482.000000,,2013-04-11 23:03:00,
2013-04-11 16:12:00,42.0,24.0,-100.00,NNW,327,4.0,12.0,48,-99.99,,,0.00,482.000000,,2013-04-11 23:12:00,
2013-04-11 16:22:00,42.0,24.0,-100.00,NNW,327,4.0,12.0,48,-99.99,,,0.00,482.000000,,2013-04-11 23:22:00,
2013-04-11 16:32:00,42.0,24.0,-100.00,NNW,327,4.0,12.0,48,-99.99,,,0.00,482.000000,,2013-04-11 23:32:00,
2013-04-11 16:53:00,45.0,27.0,-100.00,NNW,328,3.0,12.0,48,0.00,,,0.00,437.000000,,2013-04-11 23:53:00,
2013-04-11 17:02:00,45.0,27.0,-100.00,NNW,328,3.0,12.0,48,0.00,,,0.00,437.000000,,2013-04-12 00:02:00,
2013-04-11 17:12:00,45.0,27.0,-100.00,NNW,328,3.0,12.0,48,0.00,,,0.00,437.000000,,2013-04-12 00:12:00,
2013-04-11 17:22:00,45.0,27.0,-100.00,NNW,328,3.0,12.0,48,0.00,,,0.00,437.000000,,2013-04-12 00:22:00,
2013-04-11 17:32:00,45.0,27.0,-100.00,NNW,328,3.0,12.0,48,0.00,,,0.00,437.000000,,2013-04-12 00:32:00,
2013-04-11 17:53:00,41.0,25.0,-100.00,NNW,328,3.0,11.0,52,0.00,,,0.00,211.000000,,2013-04-12 00:53:00,
2013-04-11 18:02:00,41.0,25.0,-100.00,NNW,328,3.0,11.0,52,0.00,,,0.00,211.000000,,2013-04-12 01:02:00,
2013-04-11 18:12:00,41.0,25.0,-100.00,NNW,328,3.0,11.0,52,0.00,,,0.00,211.000000,,2013-04-12 01:12:00,
2013-04-11 18:22:00,41.0,25.0,-100.00,NNW,328,3.0,11.0,52,0.00,,,0.00,211.000000,,2013-04-12 01:22:00,
2013-04-11 18:32:00,41.0,25.0,-100.00,NNW,328,3.0,11.0,52,0.00,,,0.00,211.000000,,2013-04-12 01:32:00,
2013-04-11 18:52:00,39.0,25.0,-100.00,NNW,328,3.0,8.0,57,0.00,,,0.00,126.000000,,2013-04-12 01:52:00,
2013-04-11 19:02:00,39.0,25.0,-100.00,NNW,328,3.0,8.0,57,0.00,,,0.00,126.000000,,2013-04-12 02:02:00,
2013-04-11 19:12:00,39.0,25.0,-100.00,NNW,328,3.0,8.0,57,0.00,,,0.00,126.000000,,2013-04-12 02:12:00,
2013-04-11 19:22:00,39.0,25.0,-100.00,NNW,328,3.0,8.0,57,0.00,,,0.00,126.000000,,2013-04-12 02:22:00,
2013-04-11 19:32:00,39.0,25.0,-100.00,NNW,328,3.0,8.0,57,0.00,,,0.00,126.000000,,2013-04-12 02:32:00,
2013-04-11 19:52:00,33.0,20.0,-100.00,NNW,327,4.0,9.0,58,0.00,,,0.00,42.000000,,2013-04-12 02:52:00,
2013-04-11 20:02:00,33.0,20.0,-100.00,NNW,327,4.0,9.0,58,0.00,,,0.00,42.000000,,2013-04-12 03:02:00,
2013-04-11 20:22:00,33.0,20.0,-100.00,NNW,327,4.0,9.0,58,0.00,,,0.00,42.000000,,2013-04-12 03:22:00,
2013-04-11 20:32:00,33.0,20.0,-100.00,NNW,327,4.0,9.0,58,0.00,,,0.00,42.000000,,2013-04-12 03:32:00,
2013-04-11 20:53:00,30.0,20.0,-100.00,NNW,328,3.0,10.0,67,-99.99,,,0.00,2.000000,,2013-04-12 03:53:00,
2013-04-11 21:03:00,30.0,20.0,-100.00,NNW,328,3.0,10.0,67,-99.99,,,0.00,2.000000,,2013-04-12 04:03:00,
2013-04-11 21:33:00,30.0,20.0,-100.00,NNW,328,3.0,10.0,67,-99.99,,,0.00,2.000000,,2013-04-12 04:33:00,
2013-04-11 21:53:00,30.0,20.0,-100.00,NNW,328,2.0,8.0,66,0.00,,,0.00,0.000000,,2013-04-12 04:53:00,
2013-04-11 22:03:00,30.0,20.0,-100.00,NNW,328,2.0,8.0,66,0.00,,,0.00,0.000000,,2013-04-12 05:03:00,
2013-04-11 22:12:00,30.0,20.0,-100.00,NNW,328,2.0,8.0,66,0.00,,,0.00,0.000000,,2013-04-12 05:12:00,
2013-04-11 22:22:00,30.0,20.0,-100.00,NNW,328,2.0,8.0,66,0.00,,,0.00,0.000000,,2013-04-12 05:22:00,
2013-04-11 22:32:00,30.0,20.0,-100.00,NNW,328,2.0,8.0,66,0.00,,,0.00,0.000000,,2013-04-12 05:32:00,
2013-04-11 22:52:00,28.0,18.0,-100.00,NNW,328,1.0,7.0,66,0.00,,,0.00,0.000000,,2013-04-12 05:52:00,
2013-04-11 23:02:00,28.0,18.0,-100.00,NNW,328,1.0,7.0,66,0.00,,,0.00,0.000000,,2013-04-12 06:02:00,
2013-04-11 23:12:00,28.0,18.0,-100.00,NNW,328,1.0,7.0,66,0.00,,,0.00,0.000000,,2013-04-12 06:12:00,
2013-04-11 23:22:00,28.0,18.0,-100.00,NNW,328,1.0,7.0,66,0.00,,,0.00,0.000000,,2013-04-12 06:22:00,
2013-04-11 23:32:00,28.0,18.0,-100.00,NNW,328,1.0,7.0,66,0.00,,,0.00,0.000000,,2013-04-12 06:32:00,
2013-04-11 23:52:00,29.0,16.0,-100.00,NNW,328,2.0,6.0,57,0.00,,,0.00,0.000000,,2013-04-12 06:52:00,